createdAt,value
2016-04-13T08:51:40.632Z,1008.18
2016-04-13T08:52:40.571Z,1008.28
2016-04-13T08:53:40.558Z,1008.25
2016-04-13T08:54:40.546Z,1008.23
2016-04-13T08:55:40.564Z,1008.22
2016-04-13T08:56:40.521Z,1008.17
2016-04-13T08:57:40.507Z,1008.25
2016-04-13T08:58:40.510Z,1008.25
2016-04-13T08:59:40.496Z,1008.26
2016-04-13T09:00:40.468Z,1008.24
2016-04-13T09:01:40.455Z,1008.23
2016-04-13T09:02:40.442Z,1008.3
2016-04-13T09:03:40.429Z,1008.26
2016-04-13T09:04:40.416Z,1008.19
2016-04-13T09:05:40.403Z,1008.15
2016-04-13T09:06:40.390Z,1008.17
2016-04-13T09:07:40.378Z,1008.16
2016-04-13T09:08:40.364Z,1008.11
2016-04-13T09:09:40.336Z,1008.18
2016-04-13T09:10:40.323Z,1008.17
2016-04-13T09:11:40.310Z,1008.13
2016-04-13T09:12:40.297Z,1008.12
2016-04-13T09:13:40.284Z,1008.14
2016-04-13T09:14:40.272Z,1008.1
2016-04-13T09:15:40.258Z,1008.13
2016-04-13T09:16:40.245Z,1008.17
2016-04-13T09:17:40.216Z,1008.14
2016-04-13T09:18:40.219Z,1008.13
2016-04-13T09:19:40.191Z,1008.12
2016-04-13T09:20:40.178Z,1008.11
2016-04-13T09:21:40.166Z,1008.11
2016-04-13T09:22:40.152Z,1008.06
2016-04-13T09:23:40.139Z,1008.06
2016-04-13T09:24:40.126Z,1008.09
2016-04-13T09:25:40.113Z,1008.05
2016-04-13T09:26:40.116Z,1008.1
2016-04-13T09:27:40.088Z,1008.12
2016-04-13T09:28:40.060Z,1008.13
2016-04-13T09:29:40.062Z,1008.14
2016-04-13T09:30:40.049Z,1008.19
2016-04-13T09:31:40.020Z,1008.23
2016-04-13T09:32:40.007Z,1008.2
2016-04-13T09:33:39.994Z,1008.21
2016-04-13T09:34:39.981Z,1008.24
2016-04-13T09:35:39.968Z,1008.26
2016-04-13T09:36:39.955Z,1008.28
2016-04-13T09:37:39.927Z,1008.33
2016-04-13T09:38:39.961Z,1008.4
2016-04-13T09:39:39.901Z,1008.34
2016-04-13T09:40:39.888Z,1008.53
2016-04-13T09:41:39.875Z,1008.44
2016-04-13T09:42:39.862Z,1008.5
2016-04-13T09:43:39.849Z,1008.44
2016-04-13T09:44:39.820Z,1008.5
2016-04-13T09:45:39.823Z,1008.51
2016-04-13T09:46:39.794Z,1008.51
2016-04-13T09:47:39.797Z,1008.49
2016-04-13T09:48:39.785Z,1008.55
2016-04-13T09:49:39.756Z,1008.48
2016-04-13T09:50:39.744Z,1008.53
2016-04-13T09:51:39.730Z,1008.55
2016-04-13T09:52:39.733Z,1008.57
2016-04-13T09:53:39.704Z,1008.53
2016-04-13T09:54:39.728Z,1008.55
2016-04-13T09:55:39.688Z,1008.62
2016-04-13T09:56:39.660Z,1008.62
2016-04-13T09:57:39.663Z,1008.64
2016-04-13T09:58:39.635Z,1008.6
2016-04-13T09:59:39.621Z,1008.64
2016-04-13T10:00:39.617Z,1008.69
2016-04-13T10:01:39.602Z,1008.65
2016-04-13T10:02:39.589Z,1008.64
2016-04-13T10:03:39.592Z,1008.63
2016-04-13T10:04:39.554Z,1008.69
2016-04-13T10:05:39.542Z,1008.62
2016-04-13T10:06:39.528Z,1008.62
2016-04-13T10:07:39.515Z,1008.66
2016-04-13T10:08:39.502Z,1008.64
2016-04-13T10:09:39.489Z,1008.67
2016-04-13T10:10:39.476Z,1008.74
2016-04-13T10:11:39.464Z,1008.8
2016-04-13T10:12:41.685Z,1008.78
2016-04-13T10:13:39.844Z,1008.86
2016-04-13T10:14:45.159Z,1008.87
2016-04-13T10:15:44.175Z,1008.91
2016-04-13T10:16:39.411Z,1008.96
2016-04-13T10:17:39.384Z,1008.93
2016-04-13T10:18:39.370Z,1008.87
2016-04-13T10:19:39.373Z,1008.92
2016-04-13T10:20:39.345Z,1008.93
2016-04-13T10:21:39.332Z,1008.92
2016-04-13T10:22:39.319Z,1008.9
2016-04-13T10:23:39.322Z,1008.87
2016-04-13T10:24:39.277Z,1008.98
2016-04-13T10:25:39.264Z,1009.08
2016-04-13T10:26:39.252Z,1008.95
2016-04-13T10:27:39.238Z,1008.98
2016-04-13T10:28:39.241Z,1008.94
2016-04-13T10:29:39.229Z,1008.88
2016-04-13T10:30:39.223Z,1008.81
2016-04-13T10:31:39.194Z,1008.91
2016-04-13T10:32:39.181Z,1008.88
2016-04-13T10:33:39.200Z,1008.85
2016-04-13T10:34:39.155Z,1008.86
2016-04-13T10:35:39.142Z,1008.99
2016-04-13T10:36:39.145Z,1009.01
2016-04-13T10:37:39.116Z,1009.01
2016-04-13T10:38:39.101Z,1009.12
2016-04-13T10:39:39.089Z,1008.99
2016-04-13T10:40:39.076Z,1009.19
2016-04-13T10:41:39.062Z,1009.13
2016-04-13T10:42:39.050Z,1009
2016-04-13T10:43:39.037Z,1009.16
2016-04-13T10:44:39.024Z,1009.15
2016-04-13T10:45:39.011Z,1009.07
2016-04-13T10:46:39.013Z,1009.01
2016-04-13T10:47:38.985Z,1009.2
2016-04-13T10:48:38.972Z,1009.14
2016-04-13T10:49:38.959Z,1009.21
2016-04-13T10:50:38.946Z,1009.22
2016-04-13T10:51:38.933Z,1009.05
2016-04-13T10:52:38.966Z,1009.13
2016-04-13T10:53:38.922Z,1009.11
2016-04-13T10:54:38.910Z,1009.02
2016-04-13T10:55:39.991Z,1009.1
2016-04-13T10:56:49.152Z,1009.17
2016-04-13T10:57:43.980Z,1009.06
2016-04-13T10:58:39.749Z,1009.2
2016-04-13T10:59:48.486Z,1009.18
2016-04-13T11:00:42.285Z,1009.18
2016-04-13T11:01:52.282Z,1009.09
2016-04-13T11:02:42.877Z,1009.21
2016-04-13T11:03:46.018Z,1009.08
2016-04-13T11:04:53.875Z,1009.36
2016-04-13T11:06:22.463Z,1011.78
2016-04-13T11:07:23.606Z,1012.95
2016-04-13T11:09:13.549Z,1014.64
2016-04-13T11:10:20.865Z,1008.87
2016-04-13T11:11:39.109Z,1008.85
2016-04-13T11:12:49.602Z,1008.82
2016-04-13T11:13:57.266Z,1008.83
2016-04-13T11:14:58.976Z,1014.08
2016-04-13T11:16:07.251Z,1012.07
2016-04-13T11:17:06.912Z,1010.95
2016-04-13T11:18:17.249Z,1010.36
2016-04-13T11:19:04.749Z,1009.19
2016-04-13T11:20:00.832Z,1008.85
2016-04-13T11:21:21.606Z,1009.22
2016-04-13T11:22:16.796Z,1009.05
2016-04-13T11:23:16.800Z,1008.97
2016-04-13T11:24:16.789Z,1008.78
2016-04-13T11:25:16.776Z,1008.92
2016-04-13T11:26:16.779Z,1008.74
2016-04-13T11:27:16.782Z,1008.93
2016-04-13T11:28:16.769Z,1008.7
2016-04-13T11:29:16.773Z,1008.94
2016-04-13T11:30:16.761Z,1008.96
2016-04-13T11:31:16.763Z,1009.2
2016-04-13T11:32:16.749Z,1009.23
2016-04-13T11:33:16.753Z,1009
2016-04-13T11:34:16.755Z,1009.01
2016-04-13T11:35:16.742Z,1008.77
2016-04-13T11:36:16.730Z,1009.34
2016-04-13T11:37:16.732Z,1009.34
2016-04-13T11:38:16.735Z,1008.83
2016-04-13T11:39:16.737Z,1009.32
2016-04-13T11:40:16.724Z,1009.08
2016-04-13T11:41:16.727Z,1009.21
2016-04-13T11:42:16.714Z,1008.96
2016-04-13T11:43:16.717Z,1008.85
2016-04-13T11:44:16.701Z,1009.14
2016-04-13T11:45:16.688Z,1009.01
2016-04-13T11:46:16.690Z,1009.06
2016-04-13T11:47:16.694Z,1008.85
2016-04-13T11:48:16.681Z,1009.17
2016-04-13T11:49:16.684Z,1009.29
2016-04-13T11:50:16.671Z,1009.27
2016-04-13T11:51:16.673Z,1009.31
2016-04-13T11:52:16.659Z,1009.42
2016-04-13T11:53:16.662Z,1008.82
2016-04-13T11:54:16.650Z,1009.24
2016-04-13T11:55:16.653Z,1009.29
2016-04-13T11:56:16.640Z,1008.82
2016-04-13T11:57:16.642Z,1009.25
2016-04-13T11:58:16.630Z,1008.8
2016-04-13T11:59:16.632Z,1009.22
2016-04-13T12:00:16.635Z,1009.18
2016-04-13T12:01:16.622Z,1009.33
2016-04-13T12:02:16.625Z,1008.76
2016-04-13T12:03:16.627Z,1008.86
2016-04-13T12:04:16.630Z,1009.21
2016-04-13T12:05:16.617Z,1009.16
2016-04-13T12:06:16.605Z,1009.21
2016-04-13T12:07:16.607Z,1009.24
2016-04-13T12:08:16.611Z,1009.06
2016-04-13T12:09:16.613Z,1008.61
2016-04-13T12:10:16.600Z,1009.15
2016-04-13T12:11:16.603Z,1009.13
2016-04-13T12:12:16.622Z,1009.25
2016-04-13T12:13:16.608Z,1008.75
2016-04-13T12:14:16.595Z,1009.13
2016-04-13T12:15:16.598Z,1008.66
2016-04-13T12:16:16.601Z,1008.94
2016-04-13T12:17:16.603Z,1008.99
2016-04-13T12:18:16.606Z,1008.57
2016-04-13T12:19:16.593Z,1009
2016-04-13T12:20:16.596Z,1009.09
2016-04-13T12:21:16.599Z,1008.99
2016-04-13T12:22:16.601Z,1008.79
2016-04-13T12:23:16.588Z,1008.77
2016-04-13T12:24:16.591Z,1009.1
2016-04-13T12:25:16.593Z,1009.14
2016-04-13T12:26:16.596Z,1008.58
2016-04-13T12:27:16.584Z,1008.6
2016-04-13T12:28:16.587Z,1009.03
2016-04-13T12:29:16.589Z,1009.11
2016-04-13T12:30:16.592Z,1008.8
2016-04-13T12:31:16.595Z,1008.69
2016-04-13T12:32:16.581Z,1008.84
2016-04-13T12:33:16.585Z,1008.85
2016-04-13T12:34:16.571Z,1009.18
2016-04-13T12:35:16.574Z,1008.95
2016-04-13T12:36:16.576Z,1009.03
2016-04-13T12:37:16.578Z,1009.15
2016-04-13T12:38:16.582Z,1009.14
2016-04-13T12:39:16.569Z,1009.11
2016-04-13T12:40:16.572Z,1008.68
2016-04-13T12:41:16.575Z,1008.78
2016-04-13T12:42:16.562Z,1008.86
2016-04-13T12:43:16.564Z,1009.29
2016-04-13T12:44:16.567Z,1009.2
2016-04-13T12:45:16.553Z,1008.79
2016-04-13T12:46:16.556Z,1008.72
2016-04-13T12:47:16.559Z,1008.75
2016-04-13T12:48:16.546Z,1009.11
2016-04-13T12:49:16.549Z,1009.14
2016-04-13T12:50:16.567Z,1009.16
2016-04-13T12:51:16.539Z,1009.11
2016-04-13T12:52:16.542Z,1009.06
2016-04-13T12:53:16.544Z,1009.11
2016-04-13T12:54:16.531Z,1009.09
2016-04-13T12:55:16.534Z,1008.86
2016-04-13T12:56:16.521Z,1009.03
2016-04-13T12:57:16.540Z,1009.18
2016-04-13T12:58:16.558Z,1009.11
2016-04-13T12:59:16.529Z,1009.03
2016-04-13T13:00:16.532Z,1009.12
2016-04-13T13:01:16.534Z,1009.17
2016-04-13T13:02:16.521Z,1008.76
2016-04-13T13:03:16.524Z,1008.73
2016-04-13T13:04:16.527Z,1008.87
2016-04-13T13:05:16.530Z,1009.19
2016-04-13T13:06:16.517Z,1008.67
2016-04-13T13:07:16.519Z,1009.31
2016-04-13T13:08:16.522Z,1009.16
2016-04-13T13:09:16.509Z,1008.64
2016-04-13T13:10:16.512Z,1009.14
2016-04-13T13:11:16.514Z,1009.22
2016-04-13T13:12:16.517Z,1009.3
2016-04-13T13:13:16.519Z,1008.71
2016-04-13T13:14:16.507Z,1009.43
2016-04-13T13:15:16.509Z,1009.29
2016-04-13T13:16:16.512Z,1009.39
2016-04-13T13:17:16.515Z,1009.16
2016-04-13T13:18:16.502Z,1009.37
2016-04-13T13:19:16.505Z,1009.5
2016-04-13T13:20:16.508Z,1008.9
2016-04-13T13:21:16.494Z,1008.81
2016-04-13T13:22:16.497Z,1008.93
2016-04-13T13:23:16.500Z,1009.64
2016-04-13T13:24:16.502Z,1009.59
2016-04-13T13:25:16.661Z,1009.66
2016-04-13T13:26:16.507Z,1009.67
2016-04-13T13:27:16.495Z,1009.16
2016-04-13T13:28:16.498Z,1009.05
2016-04-13T13:29:16.485Z,1009.7
2016-04-13T13:30:16.503Z,1009.24
2016-04-13T13:31:16.490Z,1008.96
2016-04-13T13:32:16.493Z,1009.6
2016-04-13T13:33:16.496Z,1009.59
2016-04-13T13:34:16.482Z,1009.63
2016-04-13T13:35:16.485Z,1009.66
2016-04-13T13:36:16.488Z,1009.21
2016-04-13T13:37:16.476Z,1008.97
2016-04-13T13:38:16.478Z,1009.83
2016-04-13T13:39:16.481Z,1008.96
2016-04-13T13:40:16.467Z,1009.71
2016-04-13T13:41:16.470Z,1009.75
2016-04-13T13:42:16.473Z,1009.36
2016-04-13T13:43:16.491Z,1009.02
2016-04-13T13:44:16.462Z,1008.94
2016-04-13T13:45:16.464Z,1009.69
2016-04-13T13:46:16.468Z,1009.01
2016-04-13T13:47:16.455Z,1009.4
2016-04-13T13:48:16.457Z,1009.47
2016-04-13T13:49:16.460Z,1008.94
2016-04-13T13:50:16.463Z,1009.09
2016-04-13T13:51:16.450Z,1009.14
2016-04-13T13:52:16.452Z,1008.93
2016-04-13T13:53:16.455Z,1009.47
2016-04-13T13:54:16.443Z,1009.23
2016-04-13T13:55:16.446Z,1009.55
2016-04-13T13:56:16.448Z,1008.85
2016-04-13T13:57:16.435Z,1009.59
2016-04-13T13:58:16.438Z,1008.94
2016-04-13T13:59:16.972Z,1009.62
2016-04-13T14:00:16.427Z,1009.39
2016-04-13T14:01:16.430Z,1008.84
2016-04-13T14:02:16.949Z,1008.83
2016-04-13T14:03:16.420Z,1009.34
2016-04-13T14:04:16.423Z,1009.58
2016-04-13T14:05:16.425Z,1009.61
2016-04-13T14:06:16.412Z,1009.06
2016-04-13T14:07:16.415Z,1009.44
2016-04-13T14:08:16.418Z,1008.79
2016-04-13T14:09:16.404Z,1009.49
2016-04-13T14:10:16.407Z,1009.31
2016-04-13T14:11:16.409Z,1009.27
2016-04-13T14:12:16.397Z,1009.47
2016-04-13T14:13:16.401Z,1009.32
2016-04-13T14:14:16.387Z,1009.44
2016-04-13T14:15:16.389Z,1008.72
2016-04-13T14:16:16.408Z,1008.73
2016-04-13T14:17:16.394Z,1008.91
2016-04-13T14:18:16.383Z,1008.72
2016-04-13T14:19:16.385Z,1009.56
2016-04-13T14:20:16.388Z,1009.47
2016-04-13T14:21:16.375Z,1008.67
2016-04-13T14:22:16.378Z,1008.62
2016-04-13T14:23:16.380Z,1008.79
2016-04-13T14:24:16.367Z,1009.12
2016-04-13T14:25:16.385Z,1008.85
2016-04-13T14:26:16.372Z,1009.38
2016-04-13T14:27:16.360Z,1008.81
2016-04-13T14:28:16.410Z,1008.88
2016-04-13T14:29:16.365Z,1008.76
2016-04-13T14:30:16.352Z,1008.77
2016-04-13T14:31:16.354Z,1009.09
2016-04-13T14:32:16.341Z,1008.9
2016-04-13T14:33:16.344Z,1008.91
2016-04-13T14:34:16.346Z,1009.03
2016-04-13T14:35:16.381Z,1009.02
2016-04-13T14:36:16.337Z,1009.11
2016-04-13T14:37:16.323Z,1008.8
2016-04-13T14:38:16.326Z,1008.68
2016-04-13T14:39:16.329Z,1009.33
2016-04-13T14:40:16.317Z,1008.83
2016-04-13T14:41:16.319Z,1008.81
2016-04-13T14:42:16.307Z,1008.63
2016-04-13T14:43:16.293Z,1009.2
2016-04-13T14:44:16.296Z,1008.63
2016-04-13T14:45:16.283Z,1008.52
2016-04-13T14:46:16.286Z,1009.11
2016-04-13T14:47:16.288Z,1009.37
2016-04-13T14:48:16.275Z,1008.58
2016-04-13T14:49:16.262Z,1008.56
2016-04-13T14:50:16.297Z,1008.54
2016-04-13T14:51:16.252Z,1009.28
2016-04-13T14:52:16.239Z,1008.55
2016-04-13T14:53:16.257Z,1008.83
2016-04-13T14:54:16.234Z,1009.23
2016-04-13T14:55:16.221Z,1009.28
2016-04-13T14:56:16.224Z,1008.43
2016-04-13T14:57:16.210Z,1008.5
2016-04-13T14:58:16.229Z,1008.52
2016-04-13T14:59:16.201Z,1009.19
2016-04-13T15:00:16.219Z,1009.26
2016-04-13T15:01:16.190Z,1008.76
2016-04-13T15:02:16.177Z,1008.48
2016-04-13T15:03:16.180Z,1008.18
2016-04-13T15:04:16.167Z,1008.76
2016-04-13T15:05:16.171Z,1009.06
2016-04-13T15:06:16.157Z,1008.27
2016-04-13T15:07:16.144Z,1009.01
2016-04-13T15:08:16.146Z,1009.12
2016-04-13T15:09:16.149Z,1008.22
2016-04-13T15:10:16.137Z,1008.36
2016-04-13T15:11:16.140Z,1008.39
2016-04-13T15:12:16.126Z,1008.99
2016-04-13T15:13:16.114Z,1008.96
2016-04-13T15:14:16.117Z,1008.37
2016-04-13T15:15:16.103Z,1008.34
2016-04-13T15:16:16.106Z,1008.3
2016-04-13T15:17:16.093Z,1009.04
2016-04-13T15:18:16.099Z,1008.99
2016-04-13T15:19:16.102Z,1009.06
2016-04-13T15:20:16.090Z,1008.65
2016-04-13T15:21:16.076Z,1008.24
2016-04-13T15:22:16.079Z,1008.11
2016-04-13T15:23:16.066Z,1008.76
2016-04-13T15:24:16.054Z,1008.76
2016-04-13T15:25:16.056Z,1008.68
2016-04-13T15:26:16.043Z,1008.6
2016-04-13T15:27:16.046Z,1008.55
2016-04-13T15:28:16.032Z,1008.04
2016-04-13T15:29:16.035Z,1008.07
2016-04-13T15:30:16.037Z,1007.87
2016-04-13T15:31:16.025Z,1008.1
2016-04-13T15:32:16.028Z,1008.52
2016-04-13T15:33:16.031Z,1008.37
2016-04-13T15:34:16.002Z,1007.99
2016-04-13T15:35:16.005Z,1008.02
2016-04-13T15:36:16.038Z,1008.05
2016-04-13T15:37:15.994Z,1008.05
2016-04-13T15:38:15.997Z,1008.08
2016-04-13T15:39:16.344Z,1007.99
2016-04-13T15:40:15.971Z,1008.08
2016-04-13T15:41:15.974Z,1007.97
2016-04-13T15:42:15.960Z,1007.99
2016-04-13T15:43:15.947Z,1007.95
2016-04-13T15:44:15.950Z,1007.93
2016-04-13T15:45:15.938Z,1007.95
2016-04-13T15:46:15.924Z,1008.02
2016-04-13T15:47:15.927Z,1007.85
2016-04-13T15:48:15.915Z,1007.98
2016-04-13T15:49:15.902Z,1007.95
2016-04-13T15:50:15.888Z,1007.91
2016-04-13T15:51:15.891Z,1008.01
2016-04-13T15:52:15.894Z,1008.01
2016-04-13T15:53:15.881Z,1007.98
2016-04-13T15:54:15.868Z,1007.91
2016-04-13T15:55:15.855Z,1008.04
2016-04-13T15:56:15.843Z,1008.09
2016-04-13T15:57:15.829Z,1008.18
2016-04-13T15:58:15.832Z,1008.12
2016-04-13T15:59:15.820Z,1007.98
2016-04-13T16:00:15.807Z,1007.99
2016-04-13T16:01:15.809Z,1008.04
2016-04-13T16:02:15.796Z,1007.98
2016-04-13T16:03:15.783Z,1008.07
2016-04-13T16:04:15.770Z,1008.04
2016-04-13T16:05:15.928Z,1007.97
2016-04-13T16:06:16.228Z,1008.05
2016-04-13T16:07:16.059Z,1007.99
2016-04-13T16:08:15.734Z,1008.32
2016-04-13T16:09:15.721Z,1008.05
2016-04-13T16:10:15.708Z,1008.05
2016-04-13T16:11:15.694Z,1007.97
2016-04-13T16:12:15.682Z,1008.05
2016-04-13T16:13:15.685Z,1008.02
2016-04-13T16:14:15.672Z,1008.01
2016-04-13T16:15:15.658Z,1008.01
2016-04-13T16:16:15.646Z,1007.97
2016-04-13T16:17:15.633Z,1007.95
2016-04-13T16:18:15.620Z,1007.94
2016-04-13T16:19:15.607Z,1007.91
2016-04-13T16:20:15.610Z,1008.02
2016-04-13T16:21:15.596Z,1007.91
2016-04-13T16:22:15.584Z,1008.01
2016-04-13T16:23:15.571Z,1007.98
2016-04-13T16:24:15.573Z,1007.96
2016-04-13T16:25:15.545Z,1007.95
2016-04-13T16:26:15.548Z,1007.96
2016-04-13T16:27:15.534Z,1007.91
2016-04-13T16:28:15.522Z,1007.92
2016-04-13T16:29:15.509Z,1007.85
2016-04-13T16:30:15.496Z,1007.96
2016-04-13T16:31:15.483Z,1007.85
2016-04-13T16:32:15.470Z,1007.83
2016-04-13T16:33:15.457Z,1007.91
2016-04-13T16:34:15.444Z,1007.8
2016-04-13T16:35:15.447Z,1007.76
2016-04-13T16:36:15.434Z,1007.71
2016-04-13T16:37:15.421Z,1007.73
2016-04-13T16:38:15.408Z,1007.74
2016-04-13T16:39:15.395Z,1007.78
2016-04-13T16:40:15.383Z,1007.68
2016-04-13T16:41:15.386Z,1007.75
2016-04-13T16:42:15.356Z,1007.8
2016-04-13T16:43:15.344Z,1007.67
2016-04-13T16:44:15.346Z,1007.73
2016-04-13T16:45:15.334Z,1007.63
2016-04-13T16:46:15.321Z,1007.66
2016-04-13T16:47:15.308Z,1007.72
2016-04-13T16:48:15.294Z,1007.63
2016-04-13T16:49:15.282Z,1007.71
2016-04-13T16:50:15.268Z,1007.7
2016-04-13T16:51:15.255Z,1007.67
2016-04-13T16:52:15.243Z,1007.67
2016-04-13T16:53:15.293Z,1007.82
2016-04-13T16:54:15.232Z,1007.74
2016-04-13T16:55:15.204Z,1007.77
2016-04-13T16:56:15.207Z,1007.68
2016-04-13T16:57:15.193Z,1007.61
2016-04-13T16:58:15.181Z,1007.68
2016-04-13T16:59:15.168Z,1007.74
2016-04-13T17:00:15.155Z,1007.64
2016-04-13T17:01:15.143Z,1007.65
2016-04-13T17:02:15.129Z,1007.84
2016-04-13T17:03:15.117Z,1007.66
2016-04-13T17:04:15.120Z,1007.69
2016-04-13T17:05:15.090Z,1007.72
2016-04-13T17:06:15.078Z,1007.65
2016-04-13T17:07:15.065Z,1007.72
2016-04-13T17:08:15.051Z,1007.75
2016-04-13T17:09:15.054Z,1007.62
2016-04-13T17:10:15.042Z,1007.59
2016-04-13T17:11:15.028Z,1007.67
2016-04-13T17:12:15.016Z,1007.76
2016-04-13T17:13:15.003Z,1007.64
2016-04-13T17:14:14.989Z,1007.68
2016-04-13T17:15:14.977Z,1007.64
2016-04-13T17:16:14.963Z,1007.66
2016-04-13T17:17:14.950Z,1007.71
2016-04-13T17:18:14.938Z,1007.73
2016-04-13T17:19:14.924Z,1007.85
2016-04-13T17:20:14.912Z,1007.87
2016-04-13T17:21:14.915Z,1007.87
2016-04-13T17:22:14.901Z,1007.89
2016-04-13T17:23:14.904Z,1007.94
2016-04-13T17:24:14.876Z,1007.92
2016-04-13T17:25:14.863Z,1008
2016-04-13T17:26:14.850Z,1007.91
2016-04-13T17:27:14.837Z,1007.96
2016-04-13T17:28:14.824Z,1007.98
2016-04-13T17:29:14.812Z,1007.99
2016-04-13T17:30:14.798Z,1007.97
2016-04-13T17:31:14.785Z,1007.92
2016-04-13T17:32:14.787Z,1007.86
2016-04-13T17:33:14.759Z,1007.93
2016-04-13T17:34:14.762Z,1007.89
2016-04-13T17:35:14.734Z,1007.87
2016-04-13T17:36:14.736Z,1007.82
2016-04-13T17:37:14.723Z,1007.9
2016-04-13T17:38:14.710Z,1007.9
2016-04-13T17:39:14.697Z,1007.94
2016-04-13T17:40:14.684Z,1007.88
2016-04-13T17:41:14.671Z,1007.88
2016-04-13T17:42:14.658Z,1007.87
2016-04-13T17:43:14.645Z,1007.85
2016-04-13T17:44:14.632Z,1007.89
2016-04-13T17:45:14.620Z,1007.86
2016-04-13T17:46:14.607Z,1007.89
2016-04-13T17:47:14.625Z,1007.76
2016-04-13T17:48:14.597Z,1007.78
2016-04-13T17:49:14.583Z,1007.74
2016-04-13T17:50:14.555Z,1007.73
2016-04-13T17:51:14.558Z,1007.8
2016-04-13T17:52:14.544Z,1007.68
2016-04-13T17:53:14.532Z,1007.71
2016-04-13T17:54:14.519Z,1007.59
2016-04-13T17:55:14.506Z,1007.63
2016-04-13T17:56:14.493Z,1007.54
2016-04-13T17:57:14.480Z,1007.6
2016-04-13T17:58:14.468Z,1007.55
2016-04-13T17:59:14.455Z,1007.58
2016-04-13T18:00:14.441Z,1007.54
2016-04-13T18:01:14.429Z,1007.43
2016-04-13T18:02:14.415Z,1007.57
2016-04-13T18:03:14.403Z,1007.54
2016-04-13T18:04:14.390Z,1007.62
2016-04-13T18:05:14.376Z,1007.48
2016-04-13T18:06:14.379Z,1007.49
2016-04-13T18:07:14.351Z,1007.47
2016-04-13T18:08:14.353Z,1007.43
2016-04-13T18:09:14.325Z,1007.47
2016-04-13T18:10:14.311Z,1007.38
2016-04-13T18:11:14.299Z,1007.4
2016-04-13T18:12:14.286Z,1007.34
2016-04-13T18:13:14.288Z,1007.4
2016-04-13T18:14:14.275Z,1007.37
2016-04-13T18:15:14.263Z,1007.43
2016-04-13T18:16:14.250Z,1007.34
2016-04-13T18:17:14.252Z,1007.32
2016-04-13T18:18:14.224Z,1007.31
2016-04-13T18:19:14.211Z,1007.23
2016-04-13T18:20:14.199Z,1007.25
2016-04-13T18:21:14.185Z,1007.21
2016-04-13T18:22:14.157Z,1007.2
2016-04-13T18:23:14.160Z,1007.23
2016-04-13T18:24:14.146Z,1007.14
2016-04-13T18:25:14.133Z,1007.1
2016-04-13T18:26:14.121Z,1007.16
2016-04-13T18:27:14.107Z,1007.11
2016-04-13T18:28:14.095Z,1007.09
2016-04-13T18:29:14.081Z,1007.02
2016-04-13T18:30:14.068Z,1007
2016-04-13T18:31:14.056Z,1007.03
2016-04-13T18:32:14.043Z,1007
2016-04-13T18:33:14.030Z,1007.03
2016-04-13T18:34:14.017Z,1006.94
2016-04-13T18:35:14.004Z,1007.02
2016-04-13T18:36:13.991Z,1006.96
2016-04-13T18:37:13.978Z,1006.94
2016-04-13T18:38:13.965Z,1006.94
2016-04-13T18:39:13.952Z,1006.89
2016-04-13T18:40:13.940Z,1006.9
2016-04-13T18:41:13.926Z,1006.86
2016-04-13T18:42:13.914Z,1006.89
2016-04-13T18:43:13.901Z,1006.8
2016-04-13T18:44:13.889Z,1006.75
2016-04-13T18:45:13.875Z,1006.74
2016-04-13T18:46:13.862Z,1006.73
2016-04-13T18:47:13.849Z,1006.57
2016-04-13T18:48:13.836Z,1006.66
2016-04-13T18:49:13.822Z,1006.65
2016-04-13T18:50:13.794Z,1006.67
2016-04-13T18:51:13.797Z,1006.7
2016-04-13T18:52:13.784Z,1006.71
2016-04-13T18:53:13.772Z,1006.76
2016-04-13T18:54:13.743Z,1006.81
2016-04-13T18:55:13.730Z,1006.85
2016-04-13T18:56:13.732Z,1006.86
2016-04-13T18:57:13.719Z,1006.87
2016-04-13T18:58:13.707Z,1006.91
2016-04-13T18:59:13.678Z,1006.83
2016-04-13T19:00:13.681Z,1006.81
2016-04-13T19:01:13.652Z,1006.75
2016-04-13T19:02:13.639Z,1006.78
2016-04-13T19:03:13.626Z,1006.7
2016-04-13T19:04:13.612Z,1006.64
2016-04-13T19:05:13.600Z,1006.62
2016-04-13T19:06:13.587Z,1006.61
2016-04-13T19:07:13.575Z,1006.59
2016-04-13T19:08:13.562Z,1006.58
2016-04-13T19:09:13.548Z,1006.64
2016-04-13T19:10:13.536Z,1006.6
2016-04-13T19:11:13.522Z,1006.58
2016-04-13T19:12:13.509Z,1006.61
2016-04-13T19:13:13.497Z,1006.64
2016-04-13T19:14:13.609Z,1006.71
2016-04-13T19:15:13.472Z,1006.65
2016-04-13T19:16:13.459Z,1006.67
2016-04-13T19:17:13.445Z,1006.68
2016-04-13T19:18:13.433Z,1006.62
2016-04-13T19:19:13.420Z,1006.6
2016-04-13T19:20:13.406Z,1006.58
2016-04-13T19:21:13.394Z,1006.62
2016-04-13T19:22:13.380Z,1006.64
2016-04-13T19:23:13.368Z,1006.7
2016-04-13T19:24:13.354Z,1006.68
2016-04-13T19:25:13.341Z,1006.7
2016-04-13T19:26:13.329Z,1006.75
2016-04-13T19:27:13.299Z,1006.71
2016-04-13T19:28:13.287Z,1006.68
2016-04-13T19:29:13.290Z,1006.71
2016-04-13T19:30:13.277Z,1006.7
2016-04-13T19:31:13.265Z,1006.75
2016-04-13T19:32:13.235Z,1006.74
2016-04-13T19:33:13.223Z,1006.75
2016-04-13T19:34:13.209Z,1006.77
2016-04-13T19:35:13.196Z,1006.82
2016-04-13T19:36:13.184Z,1006.8
2016-04-13T19:37:13.171Z,1006.81
2016-04-13T19:38:13.158Z,1006.84
2016-04-13T19:39:13.207Z,1006.82
2016-04-13T19:40:13.132Z,1006.87
2016-04-13T19:41:13.120Z,1006.88
2016-04-13T19:42:13.107Z,1006.91
2016-04-13T19:43:13.092Z,1006.96
2016-04-13T19:44:13.081Z,1006.98
2016-04-13T19:45:13.083Z,1006.95
2016-04-13T19:46:13.055Z,1007.04
2016-04-13T19:47:13.041Z,1007.07
2016-04-13T19:48:13.950Z,1007.01
2016-04-13T19:49:13.016Z,1007.08
2016-04-13T19:50:13.002Z,1007.04
2016-04-13T19:51:12.984Z,1007.06
2016-04-13T19:52:13.001Z,1007
2016-04-13T19:53:12.957Z,1007.08
2016-04-13T19:54:12.946Z,1007.1
2016-04-13T19:55:12.949Z,1007.13
2016-04-13T19:56:12.920Z,1007.13
2016-04-13T19:57:12.908Z,1007.17
2016-04-13T19:58:12.895Z,1007.23
2016-04-13T19:59:12.882Z,1007.3
2016-04-13T20:00:12.869Z,1007.33
2016-04-13T20:01:12.856Z,1007.32
2016-04-13T20:02:12.843Z,1007.36
2016-04-13T20:03:12.830Z,1007.45
2016-04-13T20:04:12.816Z,1007.41
2016-04-13T20:05:12.804Z,1007.32
2016-04-13T20:06:12.776Z,1007.35
2016-04-13T20:07:12.772Z,1007.26
2016-04-13T20:08:12.835Z,1007.34
2016-04-13T20:09:12.839Z,1007.26
2016-04-13T20:10:12.879Z,1007.33
2016-04-13T20:11:12.894Z,1007.32
2016-04-13T20:12:12.920Z,1007.36
2016-04-13T20:13:12.921Z,1007.36
2016-04-13T20:14:12.925Z,1007.33
2016-04-13T20:15:12.928Z,1007.34
2016-04-13T20:16:12.930Z,1007.37
2016-04-13T20:17:12.931Z,1007.38
2016-04-13T20:18:12.923Z,1007.46
2016-04-13T20:19:12.915Z,1007.46
2016-04-13T20:20:12.909Z,1007.35
2016-04-13T20:21:12.901Z,1007.44
2016-04-13T20:22:12.893Z,1007.49
2016-04-13T20:23:12.882Z,1007.5
2016-04-13T20:24:12.870Z,1007.53
2016-04-13T20:25:12.859Z,1007.57
2016-04-13T20:26:12.848Z,1007.52
2016-04-13T20:27:12.836Z,1007.54
2016-04-13T20:28:12.809Z,1007.56
2016-04-13T20:29:12.812Z,1007.58
2016-04-13T20:30:12.785Z,1007.56
2016-04-13T20:31:12.772Z,1007.55
2016-04-13T20:32:12.760Z,1007.49
2016-04-13T20:33:12.747Z,1007.43
2016-04-13T20:34:12.734Z,1007.41
2016-04-13T20:35:12.723Z,1007.41
2016-04-13T20:36:12.866Z,1007.35
2016-04-13T20:37:12.698Z,1007.4
2016-04-13T20:38:12.747Z,1007.4
2016-04-13T20:39:12.687Z,1007.37
2016-04-13T20:40:12.659Z,1007.42
2016-04-13T20:41:12.646Z,1007.45
2016-04-13T20:42:12.632Z,1007.47
2016-04-13T20:43:12.620Z,1007.47
2016-04-13T20:44:12.607Z,1007.53
2016-04-13T20:45:12.594Z,1007.51
2016-04-13T20:46:12.581Z,1007.49
2016-04-13T20:47:12.553Z,1007.5
2016-04-13T20:48:12.539Z,1007.47
2016-04-13T20:49:12.526Z,1007.52
2016-04-13T20:50:12.514Z,1007.48
2016-04-13T20:51:12.500Z,1007.5
2016-04-13T20:52:12.488Z,1007.54
2016-04-13T20:53:12.475Z,1007.54
2016-04-13T20:54:12.508Z,1007.56
2016-04-13T20:55:12.449Z,1007.59
2016-04-13T20:56:12.436Z,1007.63
2016-04-13T20:57:12.422Z,1007.68
2016-04-13T20:58:12.411Z,1007.69
2016-04-13T20:59:12.397Z,1007.67
2016-04-13T21:00:12.588Z,1007.6
2016-04-13T21:01:12.372Z,1007.7
2016-04-13T21:02:12.358Z,1007.77